createdAt,value
2018-03-30T00:00:51.264Z,94906.68
2018-03-30T00:03:17.938Z,94924.91
2018-03-30T00:05:44.520Z,94910.08
2018-03-30T00:08:11.160Z,94918.28
2018-03-30T00:10:37.842Z,94921.15
2018-03-30T00:13:04.504Z,94909.36
2018-03-30T00:15:31.131Z,94920.92
2018-03-30T00:17:57.759Z,94920.50
2018-03-30T00:20:24.443Z,94911.11
2018-03-30T00:22:51.112Z,94917.94
2018-03-30T00:25:18.455Z,94908.91
2018-03-30T00:27:45.103Z,94908.63
2018-03-30T00:30:11.766Z,94907.75
2018-03-30T00:32:38.395Z,94906.89
2018-03-30T00:35:05.007Z,94904.77
2018-03-30T00:37:31.680Z,94913.16
2018-03-30T00:39:58.366Z,94918.84
2018-03-30T00:42:25.061Z,94928.80
2018-03-30T00:44:51.694Z,94926.16
2018-03-30T00:47:18.498Z,94924.67
2018-03-30T00:49:45.159Z,94922.02
2018-03-30T00:52:11.797Z,94922.17
2018-03-30T00:54:38.442Z,94924.56
2018-03-30T00:59:31.847Z,94925.81
2018-03-30T01:01:58.507Z,94928.20
2018-03-30T01:04:25.183Z,94929.21
2018-03-30T01:06:55.011Z,94936.66
2018-03-30T01:09:21.726Z,94931.63
2018-03-30T01:11:48.338Z,94926.83
2018-03-30T01:14:14.976Z,94933.25
2018-03-30T01:16:41.655Z,94927.59
2018-03-30T01:19:08.331Z,94926.61
2018-03-30T01:21:34.972Z,94929.98
2018-03-30T01:24:01.647Z,94925.59
2018-03-30T01:26:28.318Z,94928.78
2018-03-30T01:28:54.981Z,94929.14
2018-03-30T01:31:21.626Z,94935.34
2018-03-30T01:33:48.341Z,94941.86
2018-03-30T01:36:14.969Z,94945.78
2018-03-30T01:38:41.704Z,94942.64
2018-03-30T01:41:08.368Z,94947.40
2018-03-30T01:43:35.015Z,94950.67
2018-03-30T01:46:04.169Z,94956.98
2018-03-30T01:48:30.845Z,94951.32
2018-03-30T01:50:57.529Z,94953.81
2018-03-30T01:53:24.135Z,94948.77
2018-03-30T01:55:50.801Z,94956.84
2018-03-30T01:58:17.407Z,94963.36
2018-03-30T02:00:44.138Z,94960.89
2018-03-30T02:03:12.132Z,94956.98
2018-03-30T02:05:37.512Z,94944.91
2018-03-30T02:08:04.150Z,94950.81
2018-03-30T02:10:30.891Z,94946.80
2018-03-30T02:12:57.440Z,94948.83
2018-03-30T02:15:24.153Z,94952.70
2018-03-30T02:17:50.748Z,94944.67
2018-03-30T02:20:17.451Z,94954.73
2018-03-30T02:22:44.078Z,94956.12
2018-03-30T02:25:10.683Z,94952.22
2018-03-30T02:27:37.465Z,94963.28
2018-03-30T02:30:04.004Z,94966.44
2018-03-30T02:32:30.665Z,94971.58
2018-03-30T02:34:58.375Z,94967.94
2018-03-30T02:37:25.015Z,94963.55
2018-03-30T02:42:18.288Z,94982.56
2018-03-30T02:44:44.952Z,94980.89
2018-03-30T02:47:11.584Z,94993.86
2018-03-30T02:49:38.327Z,94987.20
2018-03-30T02:52:04.928Z,94988.08
2018-03-30T02:54:31.538Z,94999.65
2018-03-30T02:56:58.221Z,94998.77
2018-03-30T02:59:24.882Z,95002.80
2018-03-30T03:01:51.501Z,95000.52
2018-03-30T03:04:18.150Z,95010.58
2018-03-30T03:06:44.760Z,95004.56
2018-03-30T03:09:11.436Z,95000.52
2018-03-30T03:11:38.031Z,95014.23
2018-03-30T03:14:04.775Z,95017.26
2018-03-30T03:16:31.412Z,95014.62
2018-03-30T03:18:58.187Z,95018.14
2018-03-30T03:21:24.783Z,95019.02
2018-03-30T03:23:51.561Z,95028.09
2018-03-30T03:26:18.264Z,95026.70
2018-03-30T03:28:45.000Z,95035.12
2018-03-30T03:31:11.546Z,95033.86
2018-03-30T03:33:38.208Z,95021.17
2018-03-30T03:36:04.878Z,95023.69
2018-03-30T03:38:31.565Z,95035.00
2018-03-30T03:40:58.201Z,95037.77
2018-03-30T03:43:24.975Z,95038.66
2018-03-30T03:45:51.659Z,95036.63
2018-03-30T03:48:18.324Z,95045.81
2018-03-30T03:50:45.020Z,95058.37
2018-03-30T03:53:11.679Z,95062.79
2018-03-30T03:55:38.361Z,95053.60
2018-03-30T03:58:05.112Z,95059.89
2018-03-30T04:00:31.765Z,95054.11
2018-03-30T04:02:58.479Z,95055.73
2018-03-30T04:05:25.115Z,95052.73
2018-03-30T04:07:51.794Z,95061.26
2018-03-30T04:10:18.442Z,95059.25
2018-03-30T04:12:46.052Z,95055.11
2018-03-30T04:15:12.758Z,95058.01
2018-03-30T04:17:39.442Z,95070.70
2018-03-30T04:20:06.089Z,95055.98
2018-03-30T04:22:32.706Z,95059.11
2018-03-30T04:24:59.342Z,95063.52
2018-03-30T04:27:26.058Z,95061.14
2018-03-30T04:29:52.741Z,95071.19
2018-03-30T04:32:19.377Z,95068.42
2018-03-30T04:34:45.985Z,95078.59
2018-03-30T04:37:12.663Z,95070.41
2018-03-30T04:39:42.344Z,95072.56
2018-03-30T04:42:09.069Z,95070.53
2018-03-30T04:44:35.742Z,95071.27
2018-03-30T04:47:02.377Z,95067.59
2018-03-30T04:49:29.049Z,95075.66
2018-03-30T04:51:55.779Z,95073.37
2018-03-30T04:54:22.417Z,95083.78
2018-03-30T04:56:49.077Z,95079.59
2018-03-30T04:59:15.812Z,95082.50
2018-03-30T05:01:43.477Z,95079.06
2018-03-30T05:04:09.221Z,95081.69
2018-03-30T05:06:35.834Z,95075.02
2018-03-30T05:09:02.576Z,95076.64
2018-03-30T05:11:29.313Z,95083.55
2018-03-30T05:13:55.940Z,95097.26
2018-03-30T05:16:22.622Z,95108.45
2018-03-30T05:18:49.297Z,95114.48
2018-03-30T05:21:16.020Z,95114.85
2018-03-30T05:23:42.679Z,95108.81
2018-03-30T05:26:09.370Z,95118.25
2018-03-30T05:28:36.019Z,95120.66
2018-03-30T05:31:02.691Z,95123.77
2018-03-30T05:33:29.392Z,95133.17
2018-03-30T05:35:56.159Z,95139.17
2018-03-30T05:38:23.829Z,95136.14
2018-03-30T05:40:49.490Z,95139.30
2018-03-30T05:43:16.105Z,95142.66
2018-03-30T05:45:42.791Z,95152.18
2018-03-30T05:48:09.478Z,95155.56
2018-03-30T05:50:36.108Z,95147.79
2018-03-30T05:53:02.849Z,95143.69
2018-03-30T05:55:29.545Z,95148.66
2018-03-30T05:57:56.144Z,95145.45
2018-03-30T06:00:22.822Z,95145.68
2018-03-30T06:02:49.429Z,95145.66
2018-03-30T06:05:16.085Z,95147.52
2018-03-30T06:07:42.761Z,95149.16
2018-03-30T06:10:09.463Z,95155.70
2018-03-30T06:12:36.138Z,95149.09
2018-03-30T06:15:02.778Z,95153.22
2018-03-30T06:17:29.384Z,95150.01
2018-03-30T06:19:56.060Z,95151.21
2018-03-30T06:22:22.734Z,95152.19
2018-03-30T06:24:49.430Z,95154.75
2018-03-30T06:27:16.076Z,95156.48
2018-03-30T06:29:42.807Z,95153.77
2018-03-30T06:32:09.491Z,95155.31
2018-03-30T06:34:36.102Z,95158.28
2018-03-30T06:37:02.859Z,95164.99
2018-03-30T06:39:30.928Z,95165.53
2018-03-30T06:41:57.370Z,95167.98
2018-03-30T06:44:22.907Z,95163.22
2018-03-30T06:46:49.622Z,95162.61
2018-03-30T06:49:16.315Z,95167.66
2018-03-30T06:51:42.969Z,95158.44
2018-03-30T06:54:09.650Z,95161.45
2018-03-30T06:56:36.335Z,95157.16
2018-03-30T06:59:03.047Z,95162.96
2018-03-30T07:01:29.724Z,95155.86
2018-03-30T07:03:56.416Z,95163.09
2018-03-30T07:06:23.123Z,95162.47
2018-03-30T07:08:50.589Z,95168.16
2018-03-30T07:11:17.229Z,95166.30
2018-03-30T07:13:43.953Z,95170.13
2018-03-30T07:16:11.982Z,95173.42
2018-03-30T07:18:37.243Z,95173.17
2018-03-30T07:21:03.958Z,95172.79
2018-03-30T07:23:30.678Z,95172.24
2018-03-30T07:25:57.369Z,95176.87
2018-03-30T07:28:24.021Z,95179.62
2018-03-30T07:30:50.779Z,95187.23
2018-03-30T07:33:17.446Z,95186.19
2018-03-30T07:35:44.044Z,95188.45
2018-03-30T07:38:10.739Z,95186.48
2018-03-30T07:40:37.484Z,95191.45
2018-03-30T07:43:04.126Z,95186.86
2018-03-30T07:45:31.304Z,95179.27
2018-03-30T07:47:57.934Z,95179.70
2018-03-30T07:50:24.583Z,95181.59
2018-03-30T07:52:51.319Z,95177.42
2018-03-30T07:55:17.960Z,95173.00
2018-03-30T07:57:44.700Z,95179.02
2018-03-30T08:00:11.369Z,95174.94
2018-03-30T08:02:38.030Z,95170.33
2018-03-30T08:05:04.681Z,95161.80
2018-03-30T08:07:31.320Z,95169.81
2018-03-30T08:09:58.914Z,95167.78
2018-03-30T08:12:25.565Z,95162.23
2018-03-30T08:14:52.213Z,95174.45
2018-03-30T08:17:18.904Z,95175.97
2018-03-30T08:19:45.647Z,95170.11
2018-03-30T08:22:12.338Z,95168.52
2018-03-30T08:24:39.003Z,95161.63
2018-03-30T08:27:05.724Z,95169.35
2018-03-30T08:29:32.378Z,95170.40
2018-03-30T08:31:59.027Z,95164.45
2018-03-30T08:34:25.700Z,95161.50
2018-03-30T08:36:52.439Z,95159.66
2018-03-30T08:39:19.186Z,95168.08
2018-03-30T08:41:45.949Z,95160.23
2018-03-30T08:44:12.629Z,95163.79
2018-03-30T08:46:39.271Z,95165.59
2018-03-30T08:49:06.059Z,95159.41
2018-03-30T08:51:32.778Z,95156.71
2018-03-30T08:53:59.462Z,95149.62
2018-03-30T08:56:26.052Z,95142.76
2018-03-30T08:58:52.699Z,95144.62
2018-03-30T09:01:19.389Z,95133.88
2018-03-30T09:03:47.338Z,95134.30
2018-03-30T09:06:12.733Z,95136.23
2018-03-30T09:08:39.437Z,95133.80
2018-03-30T09:11:06.044Z,95131.39
2018-03-30T09:13:32.766Z,95131.39
2018-03-30T09:15:59.398Z,95123.61
2018-03-30T09:18:26.175Z,95119.97
2018-03-30T09:20:52.911Z,95125.07
2018-03-30T09:23:19.588Z,95123.35
2018-03-30T09:25:46.226Z,95124.62
2018-03-30T09:28:12.860Z,95116.66
2018-03-30T09:30:39.613Z,95117.60
2018-03-30T09:33:06.350Z,95117.89
2018-03-30T09:35:33.090Z,95121.44
2018-03-30T09:37:59.722Z,95110.72
2018-03-30T09:40:26.354Z,95107.99
2018-03-30T09:42:53.003Z,95112.47
2018-03-30T09:45:19.711Z,95104.14
2018-03-30T09:47:46.350Z,95102.69
2018-03-30T09:50:12.964Z,95100.42
2018-03-30T09:52:39.771Z,95098.02
2018-03-30T09:55:06.465Z,95082.05
2018-03-30T09:57:33.058Z,95082.47
2018-03-30T10:00:00.773Z,95091.40
2018-03-30T10:02:26.544Z,95090.46
2018-03-30T10:04:53.279Z,95085.02
2018-03-30T10:07:19.888Z,95080.52
2018-03-30T10:09:46.658Z,95075.02
2018-03-30T10:12:16.985Z,95068.00
2018-03-30T10:14:42.661Z,95067.63
2018-03-30T10:17:09.301Z,95065.69
2018-03-30T10:19:37.454Z,95067.02
2018-03-30T10:22:04.835Z,95065.12
2018-03-30T10:24:31.499Z,95064.30
2018-03-30T10:26:58.253Z,95067.34
2018-03-30T10:29:24.947Z,95069.72
2018-03-30T10:31:51.596Z,95070.92
2018-03-30T10:34:18.238Z,95055.69
2018-03-30T10:36:44.918Z,95058.68
2018-03-30T10:39:11.549Z,95048.80
2018-03-30T10:41:38.150Z,95046.00
2018-03-30T10:44:04.841Z,95041.72
2018-03-30T10:46:31.438Z,95039.81
2018-03-30T10:48:58.210Z,95040.66
2018-03-30T10:51:27.760Z,95035.53
2018-03-30T10:53:54.371Z,95026.92
2018-03-30T10:56:21.093Z,95025.54
2018-03-30T10:58:47.760Z,95018.19
2018-03-30T11:01:14.424Z,95015.34
2018-03-30T11:03:41.145Z,95018.77
2018-03-30T11:06:07.769Z,95011.11
2018-03-30T11:08:35.461Z,95002.70
2018-03-30T11:11:02.135Z,94999.50
2018-03-30T11:13:30.152Z,95001.64
2018-03-30T11:15:55.411Z,94997.66
2018-03-30T11:18:22.088Z,94996.45
2018-03-30T11:20:48.775Z,94993.93
2018-03-30T11:23:15.413Z,94998.72
2018-03-30T11:25:42.141Z,94995.55
2018-03-30T11:28:08.868Z,94994.36
2018-03-30T11:30:35.538Z,94986.80
2018-03-30T11:33:02.546Z,94984.08
2018-03-30T11:35:31.482Z,94986.22
2018-03-30T11:37:59.797Z,94979.70
2018-03-30T11:40:29.452Z,94976.21
2018-03-30T11:42:56.304Z,94971.72
2018-03-30T11:45:22.941Z,94964.64
2018-03-30T11:47:49.645Z,94971.11
2018-03-30T11:50:16.385Z,94957.24
2018-03-30T11:52:43.062Z,94959.07
2018-03-30T11:55:09.781Z,94956.40
2018-03-30T11:57:36.343Z,94951.03
2018-03-30T12:00:03.080Z,94953.98
2018-03-30T12:02:29.714Z,94948.41
2018-03-30T12:04:56.331Z,94943.31
2018-03-30T12:07:23.022Z,94936.52
2018-03-30T12:09:49.628Z,94933.13
2018-03-30T12:12:17.805Z,94937.37
2018-03-30T12:14:42.976Z,94925.31
2018-03-30T12:17:09.605Z,94927.13
2018-03-30T12:19:36.272Z,94924.72
2018-03-30T12:22:02.986Z,94922.80
2018-03-30T12:24:29.669Z,94928.80
2018-03-30T12:26:56.329Z,94922.91
2018-03-30T12:29:23.037Z,94916.73
2018-03-30T12:31:52.645Z,94917.03
2018-03-30T12:34:19.258Z,94913.70
2018-03-30T12:36:45.920Z,94910.42
2018-03-30T12:39:12.541Z,94909.00
2018-03-30T12:41:39.173Z,94905.50
2018-03-30T12:44:08.490Z,94906.16
2018-03-30T12:46:35.130Z,94907.45
2018-03-30T12:49:01.816Z,94911.65
2018-03-30T12:51:30.932Z,94891.28
2018-03-30T12:53:57.538Z,94891.66
2018-03-30T12:56:25.914Z,94888.88
2018-03-30T12:58:54.267Z,94886.66
2018-03-30T13:01:20.920Z,94885.23
2018-03-30T13:03:47.608Z,94882.28
2018-03-30T13:06:14.310Z,94878.97
2018-03-30T13:08:40.890Z,94877.92
2018-03-30T13:11:07.560Z,94882.70
2018-03-30T13:13:34.221Z,94869.83
2018-03-30T13:18:29.622Z,94865.72
2018-03-30T13:20:56.238Z,94854.41
2018-03-30T13:23:23.002Z,94860.07
2018-03-30T13:25:49.671Z,94857.73
2018-03-30T13:28:17.785Z,94860.37
2018-03-30T13:30:43.213Z,94857.06
2018-03-30T13:33:09.897Z,94863.45
2018-03-30T13:35:36.490Z,94852.95
2018-03-30T13:38:03.135Z,94846.52
2018-03-30T13:40:29.806Z,94843.47
2018-03-30T13:42:56.503Z,94847.42
2018-03-30T13:45:23.162Z,94844.36
2018-03-30T13:47:49.852Z,94843.13
2018-03-30T13:50:16.550Z,94839.16
2018-03-30T13:52:43.146Z,94836.08
2018-03-30T13:55:09.922Z,94832.77
2018-03-30T13:57:36.571Z,94830.31
2018-03-30T14:00:03.237Z,94831.03
2018-03-30T14:02:29.875Z,94826.33
2018-03-30T14:04:57.870Z,94830.66
2018-03-30T14:07:25.294Z,94824.48
2018-03-30T14:09:53.098Z,94828.81
2018-03-30T14:12:19.766Z,94829.87
2018-03-30T14:14:46.356Z,94822.97
2018-03-30T14:17:13.000Z,94825.53
2018-03-30T14:19:41.750Z,94825.01
2018-03-30T14:22:08.417Z,94822.79
2018-03-30T14:24:35.089Z,94821.31
2018-03-30T14:27:01.730Z,94815.29
2018-03-30T14:29:28.454Z,94814.16
2018-03-30T14:31:56.336Z,94818.22
2018-03-30T14:34:21.699Z,94823.34
2018-03-30T14:36:48.663Z,94818.11
2018-03-30T14:39:15.306Z,94826.33
2018-03-30T14:41:42.075Z,94824.56
2018-03-30T14:44:08.679Z,94828.51
2018-03-30T14:46:35.396Z,94837.89
2018-03-30T14:49:02.129Z,94828.88
2018-03-30T14:51:28.949Z,94833.44
2018-03-30T14:53:58.439Z,94824.29
2018-03-30T14:56:25.061Z,94831.03
2018-03-30T14:58:51.728Z,94834.02
2018-03-30T15:01:18.367Z,94835.41
2018-03-30T15:03:45.015Z,94835.74
2018-03-30T15:06:11.710Z,94833.26
2018-03-30T15:08:39.816Z,94832.31
2018-03-30T15:11:05.107Z,94826.59
2018-03-30T15:13:31.708Z,94828.73
2018-03-30T15:15:58.343Z,94829.11
2018-03-30T15:18:25.015Z,94830.39
2018-03-30T15:20:51.617Z,94828.81
2018-03-30T15:23:18.260Z,94825.78
2018-03-30T15:25:44.965Z,94819.61
2018-03-30T15:28:12.843Z,94824.77
2018-03-30T15:30:39.728Z,94821.56
2018-03-30T15:33:05.137Z,94821.31
2018-03-30T15:35:31.743Z,94829.44
2018-03-30T15:37:58.466Z,94824.05
2018-03-30T15:40:25.068Z,94827.56
2018-03-30T15:42:51.789Z,94827.52
2018-03-30T15:45:18.470Z,94833.80
2018-03-30T15:47:45.104Z,94825.59
2018-03-30T15:50:11.745Z,94823.41
2018-03-30T15:52:38.405Z,94821.13
2018-03-30T15:55:05.178Z,94819.63
2018-03-30T15:57:31.783Z,94823.88
2018-03-30T15:59:58.458Z,94825.46
2018-03-30T16:02:25.059Z,94827.16
2018-03-30T16:04:51.728Z,94821.48
2018-03-30T16:07:18.336Z,94820.20
2018-03-30T16:09:49.335Z,94823.17
2018-03-30T16:12:16.326Z,94818.13
2018-03-30T16:14:41.625Z,94823.58
2018-03-30T16:17:08.365Z,94824.70
2018-03-30T16:19:35.072Z,94820.48
2018-03-30T16:22:01.753Z,94825.15
2018-03-30T16:24:28.448Z,94817.68
2018-03-30T16:26:55.098Z,94816.91
2018-03-30T16:29:21.727Z,94815.38
2018-03-30T16:31:48.536Z,94809.86
2018-03-30T16:34:15.217Z,94816.91
2018-03-30T16:36:41.878Z,94816.27
2018-03-30T16:39:08.552Z,94815.48
2018-03-30T16:41:35.162Z,94825.11
2018-03-30T16:44:01.801Z,94825.84
2018-03-30T16:46:28.690Z,94819.11
2018-03-30T16:48:55.295Z,94818.64
2018-03-30T16:51:21.963Z,94826.14
2018-03-30T16:53:48.631Z,94830.46
2018-03-30T16:56:15.264Z,94831.60
2018-03-30T16:58:45.624Z,94833.63
2018-03-30T17:01:10.725Z,94828.77
2018-03-30T17:03:37.453Z,94836.30
2018-03-30T17:06:04.128Z,94844.70
2018-03-30T17:08:30.781Z,94849.00
2018-03-30T17:10:57.511Z,94847.87
2018-03-30T17:13:26.221Z,94847.87
2018-03-30T17:15:53.009Z,94854.78
2018-03-30T17:18:19.712Z,94852.63
2018-03-30T17:20:46.379Z,94855.56
2018-03-30T17:23:13.110Z,94851.70
2018-03-30T17:25:39.860Z,94855.09
2018-03-30T17:28:06.489Z,94855.16
2018-03-30T17:30:33.170Z,94856.43
2018-03-30T17:32:59.805Z,94854.92
2018-03-30T17:35:26.466Z,94858.66
2018-03-30T17:37:53.116Z,94861.02
2018-03-30T17:40:19.711Z,94867.33
2018-03-30T17:42:46.418Z,94867.65
2018-03-30T17:45:13.097Z,94882.57
2018-03-30T17:47:39.703Z,94881.61
2018-03-30T17:50:06.411Z,94884.33
2018-03-30T17:52:33.333Z,94889.89
2018-03-30T17:55:00.001Z,94893.25
2018-03-30T17:57:26.603Z,94893.19
2018-03-30T17:59:53.270Z,94895.65
2018-03-30T18:02:19.876Z,94892.98
2018-03-30T18:04:46.546Z,94899.61
2018-03-30T18:07:13.187Z,94898.05
2018-03-30T18:09:39.831Z,94901.55
2018-03-30T18:12:06.509Z,94900.53
2018-03-30T18:14:33.134Z,94905.13
2018-03-30T18:17:00.436Z,94908.17
2018-03-30T18:19:27.074Z,94910.84
2018-03-30T18:21:55.053Z,94904.81
2018-03-30T18:24:20.354Z,94912.29
2018-03-30T18:26:46.979Z,94912.06
2018-03-30T18:29:13.619Z,94928.75
2018-03-30T18:31:40.314Z,94930.45
2018-03-30T18:34:06.982Z,94928.77
2018-03-30T18:36:33.659Z,94927.05
2018-03-30T18:39:00.332Z,94925.78
2018-03-30T18:41:27.032Z,94930.64
2018-03-30T18:43:53.713Z,94931.03
2018-03-30T18:46:20.356Z,94943.34
2018-03-30T18:48:46.992Z,94949.09
2018-03-30T18:51:13.709Z,94947.98
2018-03-30T18:53:40.472Z,94951.48
2018-03-30T18:56:07.212Z,94963.36
2018-03-30T18:58:33.891Z,94965.92
2018-03-30T19:01:03.637Z,94967.88
2018-03-30T19:03:30.282Z,94972.56
2018-03-30T19:05:56.938Z,94975.89
2018-03-30T19:08:23.615Z,94973.36
2018-03-30T19:10:50.294Z,94974.26
2018-03-30T19:13:16.932Z,94973.83
2018-03-30T19:15:43.645Z,94974.34
2018-03-30T19:18:10.278Z,94976.67
2018-03-30T19:20:36.988Z,94979.64
2018-03-30T19:23:04.387Z,94979.33
2018-03-30T19:25:31.023Z,94985.77
2018-03-30T19:27:57.703Z,94983.41
2018-03-30T19:30:24.372Z,94992.13
2018-03-30T19:32:51.026Z,94992.67
2018-03-30T19:35:17.660Z,94988.55
2018-03-30T19:37:44.377Z,94998.33
2018-03-30T19:40:11.032Z,94992.38
2018-03-30T19:42:37.705Z,94988.39
2018-03-30T19:45:07.221Z,94996.94
2018-03-30T19:47:36.752Z,95004.34
2018-03-30T19:50:03.541Z,94986.38
2018-03-30T19:52:30.200Z,94979.39
2018-03-30T19:54:56.849Z,94989.33
2018-03-30T19:57:23.501Z,94996.05
2018-03-30T19:59:50.687Z,94991.02
2018-03-30T20:02:17.326Z,94983.07
2018-03-30T20:04:44.045Z,94983.57
2018-03-30T20:07:10.649Z,94986.10
2018-03-30T20:09:40.192Z,94984.55
2018-03-30T20:12:06.903Z,94997.22
2018-03-30T20:14:33.595Z,95009.13
2018-03-30T20:17:00.199Z,95000.33
2018-03-30T20:19:26.960Z,94993.05
2018-03-30T20:21:53.589Z,95006.19
2018-03-30T20:24:20.191Z,95000.62
2018-03-30T20:26:46.877Z,94996.30
2018-03-30T20:29:13.512Z,95005.84
2018-03-30T20:31:40.323Z,95022.88
2018-03-30T20:34:06.961Z,95002.77
2018-03-30T20:36:33.588Z,95015.38
2018-03-30T20:39:00.291Z,95005.92
2018-03-30T20:41:26.959Z,94998.44
2018-03-30T20:43:55.456Z,95012.81
2018-03-30T20:46:22.132Z,94998.55
2018-03-30T20:48:48.924Z,95004.23
2018-03-30T20:51:15.531Z,95021.53
2018-03-30T20:53:42.198Z,95005.91
2018-03-30T20:56:08.849Z,94997.30
2018-03-30T20:58:35.447Z,95021.17
2018-03-30T21:01:02.216Z,95006.16
2018-03-30T21:03:37.220Z,94991.66
2018-03-30T21:06:03.897Z,95013.72
2018-03-30T21:08:30.686Z,95019.75
2018-03-30T21:10:57.296Z,95015.58
2018-03-30T21:13:24.013Z,95003.09
2018-03-30T21:15:50.630Z,95004.26
2018-03-30T21:18:17.303Z,95013.35
2018-03-30T21:20:43.956Z,95014.61
2018-03-30T21:23:10.671Z,95013.77
2018-03-30T21:25:37.321Z,95001.02
2018-03-30T21:28:04.021Z,94999.89
2018-03-30T21:30:30.695Z,95009.37
2018-03-30T21:32:57.345Z,95005.00
2018-03-30T21:35:24.004Z,95020.64
2018-03-30T21:37:50.782Z,95011.47
2018-03-30T21:40:19.455Z,95019.77
2018-03-30T21:42:49.309Z,95020.77
2018-03-30T21:45:17.186Z,95025.09
2018-03-30T21:47:42.697Z,95011.22
2018-03-30T21:50:09.382Z,95026.89
2018-03-30T21:52:35.983Z,95018.44
2018-03-30T21:55:02.629Z,95027.08
2018-03-30T21:57:29.402Z,95004.61
2018-03-30T21:59:57.364Z,95037.90
2018-03-30T22:02:22.740Z,95029.67
2018-03-30T22:04:49.409Z,95019.91
2018-03-30T22:07:16.043Z,95018.27
2018-03-30T22:09:44.681Z,95009.59
2018-03-30T22:12:09.394Z,95030.91
2018-03-30T22:14:36.078Z,95012.52
2018-03-30T22:17:04.931Z,95027.38
2018-03-30T22:19:29.434Z,95026.91
2018-03-30T22:21:56.121Z,95029.67
2018-03-30T22:24:22.760Z,95021.10
2018-03-30T22:26:51.958Z,95029.17
2018-03-30T22:29:18.602Z,95030.94
2018-03-30T22:31:45.236Z,95025.14
2018-03-30T22:34:11.920Z,95017.57
2018-03-30T22:36:38.682Z,95041.91
2018-03-30T22:39:05.355Z,95024.26
2018-03-30T22:41:33.328Z,95027.81
2018-03-30T22:43:58.631Z,95027.34
2018-03-30T22:46:25.311Z,95019.38
2018-03-30T22:48:53.326Z,95012.69
2018-03-30T22:51:18.575Z,95018.52
2018-03-30T22:53:45.266Z,95015.11
2018-03-30T22:56:11.933Z,95009.13
2018-03-30T22:58:40.674Z,95007.11
2018-03-30T23:01:05.267Z,95008.59
2018-03-30T23:03:31.914Z,95014.67
2018-03-30T23:06:01.493Z,95011.87
2018-03-30T23:08:28.141Z,95017.70
2018-03-30T23:10:54.778Z,95018.33
2018-03-30T23:13:21.432Z,95017.95
2018-03-30T23:15:48.109Z,95012.69
2018-03-30T23:18:14.790Z,95006.86
2018-03-30T23:20:41.486Z,95008.05
2018-03-30T23:23:08.159Z,95011.83
2018-03-30T23:25:34.774Z,95006.00
2018-03-30T23:28:01.460Z,95006.92
2018-03-30T23:30:31.037Z,95004.45
2018-03-30T23:35:43.450Z,94992.23
2018-03-30T23:38:10.199Z,94993.23
2018-03-30T23:40:36.909Z,94982.90
2018-03-30T23:43:03.546Z,94994.13
2018-03-30T23:45:30.318Z,94997.37
2018-03-30T23:47:57.002Z,94993.89
2018-03-30T23:50:23.707Z,94993.48
2018-03-30T23:52:50.418Z,94997.93
2018-03-30T23:55:17.086Z,94994.93
2018-03-30T23:57:43.760Z,94984.73
